createdAt,value
2018-10-17T00:00:23.216Z,36.90
2018-10-17T00:01:23.256Z,37.00
2018-10-17T00:02:23.326Z,37.50
2018-10-17T00:03:23.121Z,39.10
2018-10-17T00:04:23.086Z,39.40
2018-10-17T00:05:23.136Z,39.60
2018-10-17T00:06:23.101Z,38.90
2018-10-17T00:07:23.108Z,40.90
2018-10-17T00:08:23.121Z,39.90
2018-10-17T00:09:23.070Z,40.10
2018-10-17T00:10:23.469Z,39.90
2018-10-17T00:11:24.323Z,40.80
2018-10-17T00:12:23.192Z,41.00
2018-10-17T00:13:23.205Z,39.90
2018-10-17T00:14:23.290Z,41.60
2018-10-17T00:15:23.188Z,41.20
2018-10-17T00:16:23.317Z,40.80
2018-10-17T00:17:23.204Z,40.90
2018-10-17T00:18:23.379Z,40.60
2018-10-17T00:19:23.205Z,43.60
2018-10-17T00:20:23.419Z,42.10
2018-10-17T00:21:23.236Z,42.50
2018-10-17T00:22:23.181Z,41.40
2018-10-17T00:23:23.217Z,42.80
2018-10-17T00:24:23.294Z,42.80
2018-10-17T00:25:23.181Z,42.30
2018-10-17T00:26:23.135Z,41.40
2018-10-17T00:27:23.170Z,41.00
2018-10-17T00:28:23.433Z,43.00
2018-10-17T00:29:23.162Z,42.50
2018-10-17T00:30:23.240Z,42.90
2018-10-17T00:31:23.197Z,41.90
2018-10-17T00:32:23.254Z,42.70
2018-10-17T00:33:23.167Z,43.20
2018-10-17T00:34:23.361Z,41.60
2018-10-17T00:35:23.115Z,42.60
2018-10-17T00:36:23.320Z,42.40
2018-10-17T00:37:23.296Z,42.60
2018-10-17T00:38:23.223Z,43.00
2018-10-17T00:39:23.211Z,42.60
2018-10-17T00:40:23.333Z,42.60
2018-10-17T00:41:23.273Z,43.20
2018-10-17T00:42:23.360Z,43.10
2018-10-17T00:43:23.272Z,43.50
2018-10-17T00:44:23.270Z,41.70
2018-10-17T00:45:23.264Z,42.50
2018-10-17T00:46:23.259Z,44.60
2018-10-17T00:47:23.262Z,44.20
2018-10-17T00:48:23.283Z,43.40
2018-10-17T00:49:23.921Z,44.20
2018-10-17T00:50:23.280Z,43.80
2018-10-17T00:51:23.287Z,44.90
2018-10-17T00:52:23.220Z,44.00
2018-10-17T00:53:23.249Z,42.00
2018-10-17T00:54:23.347Z,42.50
2018-10-17T00:55:23.549Z,40.80
2018-10-17T00:56:23.413Z,42.60
2018-10-17T00:57:23.315Z,41.50
2018-10-17T00:58:23.339Z,40.40
2018-10-17T00:59:23.366Z,42.10
2018-10-17T01:00:23.278Z,41.60
2018-10-17T01:01:23.282Z,43.30
2018-10-17T01:02:23.396Z,41.60
2018-10-17T01:03:23.292Z,41.70
2018-10-17T01:04:23.341Z,41.80
2018-10-17T01:05:24.184Z,42.50
2018-10-17T01:06:23.393Z,43.00
2018-10-17T01:07:23.382Z,43.70
2018-10-17T01:08:23.318Z,43.40
2018-10-17T01:09:23.258Z,43.20
2018-10-17T01:10:23.342Z,43.80
2018-10-17T01:11:23.277Z,43.10
2018-10-17T01:12:23.331Z,42.30
2018-10-17T01:13:23.431Z,43.00
2018-10-17T01:14:23.487Z,42.10
2018-10-17T01:15:23.510Z,43.90
2018-10-17T01:16:23.373Z,43.10
2018-10-17T01:17:23.357Z,43.80
2018-10-17T01:18:23.386Z,44.40
2018-10-17T01:19:23.337Z,42.80
2018-10-17T01:20:23.312Z,41.90
2018-10-17T01:21:23.958Z,42.30
2018-10-17T01:22:23.387Z,43.60
2018-10-17T01:23:23.608Z,43.40
2018-10-17T01:24:23.324Z,45.80
2018-10-17T01:25:23.245Z,48.30
2018-10-17T01:26:23.280Z,50.20
2018-10-17T01:27:23.321Z,52.80
2018-10-17T01:28:23.445Z,52.00
2018-10-17T01:29:23.410Z,53.80
2018-10-17T01:30:23.266Z,54.80
2018-10-17T01:31:23.423Z,54.50
2018-10-17T01:32:23.303Z,58.50
2018-10-17T01:33:23.383Z,57.10
2018-10-17T01:34:23.305Z,58.80
2018-10-17T01:35:23.446Z,59.00
2018-10-17T01:36:23.297Z,60.00
2018-10-17T01:37:23.359Z,60.80
2018-10-17T01:38:23.352Z,60.40
2018-10-17T01:39:23.436Z,59.20
2018-10-17T01:40:23.382Z,62.50
2018-10-17T01:41:23.239Z,61.80
2018-10-17T01:42:23.280Z,63.30
2018-10-17T01:43:23.352Z,62.70
2018-10-17T01:44:23.367Z,61.70
2018-10-17T01:45:23.425Z,62.90
2018-10-17T01:46:23.467Z,63.60
2018-10-17T01:47:23.419Z,61.00
2018-10-17T01:48:23.316Z,58.60
2018-10-17T01:49:23.343Z,60.60
2018-10-17T01:50:23.461Z,64.20
2018-10-17T01:51:23.614Z,63.40
2018-10-17T01:52:23.382Z,59.70
2018-10-17T01:53:23.424Z,64.10
2018-10-17T01:54:23.345Z,64.90
2018-10-17T01:55:23.338Z,64.90
2018-10-17T01:56:23.428Z,61.90
2018-10-17T01:57:23.439Z,63.00
2018-10-17T01:58:23.354Z,63.10
2018-10-17T01:59:23.433Z,63.40
2018-10-17T02:00:24.049Z,61.00
2018-10-17T02:01:23.482Z,57.70
2018-10-17T02:02:23.516Z,56.70
2018-10-17T02:03:23.384Z,51.20
2018-10-17T02:04:23.497Z,51.70
2018-10-17T02:05:23.447Z,50.20
2018-10-17T02:06:23.520Z,47.80
2018-10-17T02:07:23.413Z,45.50
2018-10-17T02:08:23.421Z,45.20
2018-10-17T02:09:23.434Z,44.50
2018-10-17T02:10:23.506Z,45.30
2018-10-17T02:11:23.942Z,45.50
2018-10-17T02:12:23.402Z,43.20
2018-10-17T02:13:23.463Z,46.00
2018-10-17T02:14:23.396Z,46.20
2018-10-17T02:15:23.413Z,43.80
2018-10-17T02:16:23.448Z,44.70
2018-10-17T02:17:23.368Z,44.20
2018-10-17T02:18:23.538Z,45.10
2018-10-17T02:19:23.397Z,44.20
2018-10-17T02:20:23.538Z,45.50
2018-10-17T02:21:23.406Z,45.90
2018-10-17T02:22:23.517Z,45.50
2018-10-17T02:23:23.448Z,46.90
2018-10-17T02:24:23.588Z,47.40
2018-10-17T02:25:23.437Z,47.10
2018-10-17T02:26:23.455Z,45.40
2018-10-17T02:27:23.629Z,46.80
2018-10-17T02:28:23.392Z,46.70
2018-10-17T02:29:23.458Z,45.60
2018-10-17T02:30:23.435Z,46.50
2018-10-17T02:31:23.474Z,47.60
2018-10-17T02:32:23.509Z,45.00
2018-10-17T02:33:23.423Z,45.00
2018-10-17T02:34:23.550Z,44.00
2018-10-17T02:35:23.569Z,43.60
2018-10-17T02:36:23.470Z,45.60
2018-10-17T02:37:23.335Z,44.80
2018-10-17T02:38:23.392Z,42.90
2018-10-17T02:39:23.369Z,45.00
2018-10-17T02:40:23.526Z,44.80
2018-10-17T02:41:23.416Z,43.30
2018-10-17T02:42:23.485Z,44.50
2018-10-17T02:43:23.408Z,43.60
2018-10-17T02:44:23.534Z,44.80
2018-10-17T02:45:23.610Z,42.80
2018-10-17T02:46:23.929Z,44.30
2018-10-17T02:47:23.368Z,44.40
2018-10-17T02:48:23.456Z,44.10
2018-10-17T02:49:23.396Z,44.10
2018-10-17T02:50:23.513Z,44.80
2018-10-17T02:51:23.410Z,44.60
2018-10-17T02:52:23.637Z,45.60
2018-10-17T02:53:23.668Z,45.20
2018-10-17T02:54:23.471Z,44.90
2018-10-17T02:55:23.453Z,44.80
2018-10-17T02:56:23.456Z,44.10
2018-10-17T02:57:23.427Z,43.90
2018-10-17T02:58:23.473Z,42.80
2018-10-17T02:59:23.616Z,42.70
2018-10-17T03:00:23.527Z,43.00
2018-10-17T03:01:23.375Z,43.80
2018-10-17T03:02:23.543Z,43.50
2018-10-17T03:03:23.525Z,45.20
2018-10-17T03:04:23.454Z,45.30
2018-10-17T03:05:23.572Z,45.50
2018-10-17T03:06:23.558Z,45.60
2018-10-17T03:07:23.851Z,45.30
2018-10-17T03:08:23.486Z,44.00
2018-10-17T03:09:23.471Z,43.60
2018-10-17T03:10:23.630Z,43.80
2018-10-17T03:11:23.508Z,44.30
2018-10-17T03:12:23.511Z,44.50
2018-10-17T03:13:23.515Z,43.50
2018-10-17T03:14:23.535Z,43.90
2018-10-17T03:15:23.527Z,42.90
2018-10-17T03:16:23.606Z,42.30
2018-10-17T03:17:23.511Z,43.40
2018-10-17T03:18:23.532Z,42.40
2018-10-17T03:19:23.456Z,43.30
2018-10-17T03:20:23.625Z,43.20
2018-10-17T03:21:23.579Z,44.10
2018-10-17T03:22:23.654Z,43.80
2018-10-17T03:23:23.480Z,43.00
2018-10-17T03:24:23.467Z,43.90
2018-10-17T03:25:23.412Z,44.30
2018-10-17T03:26:23.676Z,43.40
2018-10-17T03:27:23.550Z,42.90
2018-10-17T03:28:23.717Z,42.70
2018-10-17T03:29:23.542Z,41.70
2018-10-17T03:30:23.598Z,42.90
2018-10-17T03:31:23.565Z,43.30
2018-10-17T03:32:23.562Z,41.70
2018-10-17T03:33:23.470Z,42.80
2018-10-17T03:34:23.564Z,42.70
2018-10-17T03:35:23.481Z,43.10
2018-10-17T03:36:23.700Z,42.80
2018-10-17T03:37:23.520Z,42.30
2018-10-17T03:38:23.449Z,43.00
2018-10-17T03:39:23.589Z,42.70
2018-10-17T03:40:23.696Z,43.60
2018-10-17T03:41:23.572Z,42.50
2018-10-17T03:42:23.504Z,40.60
2018-10-17T03:43:23.497Z,42.20
2018-10-17T03:44:23.608Z,42.10
2018-10-17T03:45:23.502Z,42.90
2018-10-17T03:46:23.630Z,42.60
2018-10-17T03:47:24.285Z,43.30
2018-10-17T03:48:23.478Z,42.80
2018-10-17T03:49:23.694Z,42.70
2018-10-17T03:50:23.608Z,42.00
2018-10-17T03:51:23.700Z,42.50
2018-10-17T03:52:23.554Z,44.10
2018-10-17T03:53:23.702Z,44.10
2018-10-17T03:54:23.597Z,43.50
2018-10-17T03:55:23.603Z,45.90
2018-10-17T03:56:23.591Z,45.00
2018-10-17T03:57:23.662Z,45.10
2018-10-17T03:58:23.554Z,43.40
2018-10-17T03:59:23.704Z,44.40
2018-10-17T04:00:23.502Z,43.40
2018-10-17T04:01:23.534Z,44.10
2018-10-17T04:02:23.531Z,44.40
2018-10-17T04:03:23.584Z,44.70
2018-10-17T04:04:23.495Z,45.40
2018-10-17T04:05:23.668Z,43.50
2018-10-17T04:06:23.570Z,43.80
2018-10-17T04:07:23.608Z,43.80
2018-10-17T04:08:23.701Z,43.60
2018-10-17T04:09:23.612Z,42.30
2018-10-17T04:10:23.533Z,41.40
2018-10-17T04:11:23.814Z,42.30
2018-10-17T04:12:23.679Z,42.90
2018-10-17T04:13:23.605Z,43.70
2018-10-17T04:14:23.584Z,44.60
2018-10-17T04:15:23.641Z,43.70
2018-10-17T04:16:23.597Z,44.40
2018-10-17T04:17:23.561Z,44.70
2018-10-17T04:18:23.605Z,45.10
2018-10-17T04:19:23.553Z,45.00
2018-10-17T04:20:23.716Z,43.30
2018-10-17T04:21:23.599Z,44.80
2018-10-17T04:22:24.047Z,42.60
2018-10-17T04:23:23.593Z,43.40
2018-10-17T04:24:23.616Z,43.20
2018-10-17T04:25:23.596Z,43.60
2018-10-17T04:26:23.634Z,43.80
2018-10-17T04:27:23.639Z,44.70
2018-10-17T04:28:23.617Z,46.10
2018-10-17T04:29:23.624Z,42.30
2018-10-17T04:30:23.632Z,44.50
2018-10-17T04:31:24.168Z,46.40
2018-10-17T04:32:23.649Z,45.10
2018-10-17T04:33:23.579Z,44.20
2018-10-17T04:34:23.627Z,47.10
2018-10-17T04:35:23.692Z,45.10
2018-10-17T04:36:23.692Z,46.30
2018-10-17T04:37:23.664Z,45.70
2018-10-17T04:38:23.575Z,47.00
2018-10-17T04:39:23.761Z,46.80
2018-10-17T04:40:23.759Z,46.90
2018-10-17T04:41:23.634Z,44.90
2018-10-17T04:42:23.657Z,46.50
2018-10-17T04:43:23.757Z,46.30
2018-10-17T04:44:23.670Z,45.70
2018-10-17T04:45:23.624Z,46.70
2018-10-17T04:46:23.664Z,46.50
2018-10-17T04:47:23.652Z,46.00
2018-10-17T04:48:23.616Z,48.40
2018-10-17T04:49:23.631Z,46.00
2018-10-17T04:50:23.639Z,46.20
2018-10-17T04:51:23.822Z,45.30
2018-10-17T04:52:23.754Z,46.20
2018-10-17T04:53:24.485Z,47.30
2018-10-17T04:54:23.690Z,47.20
2018-10-17T04:55:23.760Z,47.40
2018-10-17T04:56:23.690Z,48.40
2018-10-17T04:57:23.658Z,45.80
2018-10-17T04:58:23.792Z,46.80
2018-10-17T04:59:23.704Z,47.80
2018-10-17T05:00:23.725Z,47.00
2018-10-17T05:01:23.643Z,48.10
2018-10-17T05:02:23.661Z,48.90
2018-10-17T05:03:23.724Z,49.50
2018-10-17T05:04:23.881Z,48.00
2018-10-17T05:05:23.736Z,47.40
2018-10-17T05:06:23.685Z,48.30
2018-10-17T05:07:23.814Z,48.00
2018-10-17T05:08:23.639Z,47.90
2018-10-17T05:09:23.772Z,49.30
2018-10-17T05:10:23.744Z,48.70
2018-10-17T05:11:23.750Z,49.00
2018-10-17T05:12:23.814Z,49.20
2018-10-17T05:13:23.702Z,49.80
2018-10-17T05:14:23.692Z,48.30
2018-10-17T05:15:23.781Z,49.10
2018-10-17T05:16:23.778Z,49.20
2018-10-17T05:17:23.650Z,48.70
2018-10-17T05:18:23.931Z,50.50
2018-10-17T05:19:23.946Z,49.70
2018-10-17T05:20:23.841Z,48.30
2018-10-17T05:21:23.753Z,49.00
2018-10-17T05:22:23.889Z,47.00
2018-10-17T05:23:23.834Z,48.10
2018-10-17T05:24:23.636Z,48.60
2018-10-17T05:25:23.635Z,47.10
2018-10-17T05:26:23.892Z,47.90
2018-10-17T05:27:23.733Z,48.30
2018-10-17T05:28:24.546Z,48.00
2018-10-17T05:29:23.639Z,49.00
2018-10-17T05:30:23.797Z,46.70
2018-10-17T05:31:23.622Z,47.60
2018-10-17T05:32:23.702Z,47.90
2018-10-17T05:33:23.643Z,48.20
2018-10-17T05:34:24.253Z,49.40
2018-10-17T05:35:23.616Z,47.00
2018-10-17T05:36:23.668Z,46.60
2018-10-17T05:37:23.930Z,46.10
2018-10-17T05:38:23.777Z,48.10
2018-10-17T05:39:23.802Z,47.70
2018-10-17T05:40:24.546Z,47.10
2018-10-17T05:41:23.667Z,47.40
2018-10-17T05:42:23.701Z,49.80
2018-10-17T05:43:23.703Z,48.30
2018-10-17T05:44:23.771Z,48.00
2018-10-17T05:45:23.702Z,47.20
2018-10-17T05:46:23.801Z,49.00
2018-10-17T05:47:23.679Z,48.30
2018-10-17T05:48:23.865Z,49.10
2018-10-17T05:49:23.797Z,48.70
2018-10-17T05:50:23.732Z,48.90
2018-10-17T05:51:23.774Z,49.30
2018-10-17T05:52:23.943Z,48.10
2018-10-17T05:53:23.941Z,51.80
2018-10-17T05:54:23.997Z,51.40
2018-10-17T05:55:23.869Z,51.10
2018-10-17T05:56:23.787Z,50.10
2018-10-17T05:57:23.756Z,50.40
2018-10-17T06:00:02.740Z,49.20
2018-10-17T06:01:24.105Z,49.80
2018-10-17T06:03:24.012Z,51.30
2018-10-17T06:04:24.520Z,48.80
2018-10-17T06:05:23.899Z,49.60
2018-10-17T06:06:23.727Z,48.90
2018-10-17T06:07:24.183Z,50.90
2018-10-17T06:08:24.533Z,50.40
2018-10-17T06:09:24.025Z,53.00
2018-10-17T06:10:23.999Z,47.80
2018-10-17T06:11:23.894Z,47.70
2018-10-17T06:12:24.061Z,49.30
2018-10-17T06:13:23.767Z,46.30
2018-10-17T06:14:23.751Z,47.90
2018-10-17T06:15:23.838Z,49.50
2018-10-17T06:16:23.730Z,48.80
2018-10-17T06:17:23.853Z,56.20
2018-10-17T06:18:23.842Z,52.30
2018-10-17T06:19:24.213Z,57.20
2018-10-17T06:20:24.936Z,44.80
2018-10-17T06:21:24.486Z,47.80
2018-10-17T06:22:24.012Z,46.90
2018-10-17T06:23:23.786Z,45.70
2018-10-17T06:24:23.966Z,45.90
2018-10-17T06:25:23.773Z,46.90
2018-10-17T06:26:24.009Z,46.40
2018-10-17T06:27:23.889Z,45.80
2018-10-17T06:28:23.959Z,45.20
2018-10-17T06:29:23.787Z,46.70
2018-10-17T06:30:23.794Z,44.90
2018-10-17T06:31:23.983Z,46.30
2018-10-17T06:32:23.845Z,46.60
2018-10-17T06:33:23.810Z,47.00
2018-10-17T06:34:24.047Z,50.60
2018-10-17T06:35:23.933Z,44.60
2018-10-17T06:36:23.751Z,43.70
2018-10-17T06:37:23.776Z,43.40
2018-10-17T06:38:23.781Z,44.80
2018-10-17T06:39:23.956Z,45.90
2018-10-17T06:40:23.939Z,43.20
2018-10-17T06:41:23.949Z,42.70
2018-10-17T06:42:23.703Z,44.30
2018-10-17T06:43:23.831Z,43.20
2018-10-17T06:44:31.170Z,42.70
2018-10-17T06:45:24.671Z,42.20
2018-10-17T06:46:24.531Z,42.60
2018-10-17T06:47:23.811Z,41.40
2018-10-17T06:48:23.805Z,41.20
2018-10-17T06:49:23.840Z,41.50
2018-10-17T06:50:23.858Z,41.50
2018-10-17T06:51:24.668Z,41.70
2018-10-17T06:52:23.834Z,39.50
2018-10-17T06:53:23.816Z,40.90
2018-10-17T06:54:23.759Z,40.20
2018-10-17T06:55:24.079Z,41.50
2018-10-17T06:56:23.904Z,40.90
2018-10-17T06:57:24.321Z,40.20
2018-10-17T06:58:23.890Z,40.10
2018-10-17T06:59:23.878Z,39.50
2018-10-17T07:00:24.006Z,40.70
2018-10-17T07:01:23.821Z,39.30
2018-10-17T07:02:23.994Z,39.40
2018-10-17T07:03:24.091Z,39.50
2018-10-17T07:04:23.923Z,39.60
2018-10-17T07:05:23.839Z,40.20
2018-10-17T07:06:23.849Z,39.00
2018-10-17T07:07:23.793Z,37.80
2018-10-17T07:08:23.864Z,38.60
2018-10-17T07:09:23.857Z,38.30
2018-10-17T07:10:23.824Z,38.30
2018-10-17T07:11:23.893Z,34.90
2018-10-17T07:12:23.837Z,36.50
2018-10-17T07:13:23.899Z,36.30
2018-10-17T07:14:23.961Z,37.20
2018-10-17T07:15:23.852Z,37.90
2018-10-17T07:16:23.861Z,35.70
2018-10-17T07:17:23.944Z,35.00
2018-10-17T07:18:24.707Z,34.50
2018-10-17T07:19:28.391Z,34.60
2018-10-17T07:20:24.106Z,34.10
2018-10-17T07:21:23.801Z,33.30
2018-10-17T07:22:23.853Z,34.50
2018-10-17T07:23:23.872Z,35.30
2018-10-17T07:24:23.923Z,34.40
2018-10-17T07:25:24.540Z,35.00
2018-10-17T07:26:23.866Z,33.60
2018-10-17T07:27:23.848Z,32.00
2018-10-17T07:28:23.891Z,33.10
2018-10-17T07:29:23.934Z,35.10
2018-10-17T07:30:24.810Z,35.40
2018-10-17T07:31:24.017Z,33.30
2018-10-17T07:32:24.177Z,33.70
2018-10-17T07:33:23.854Z,33.60
2018-10-17T07:34:23.844Z,33.50
2018-10-17T07:35:23.853Z,33.30
2018-10-17T07:36:23.910Z,31.80
2018-10-17T07:37:23.901Z,34.00
2018-10-17T07:38:23.966Z,34.50
2018-10-17T07:39:23.868Z,34.60
2018-10-17T07:40:24.800Z,31.80
2018-10-17T07:41:25.553Z,34.80
2018-10-17T07:42:23.908Z,34.70
2018-10-17T07:43:23.997Z,33.60
2018-10-17T07:44:23.909Z,33.80
2018-10-17T07:45:24.010Z,34.10
2018-10-17T07:46:23.876Z,34.20
2018-10-17T07:47:24.753Z,35.00
2018-10-17T07:48:24.771Z,33.90
2018-10-17T07:49:24.169Z,32.10
2018-10-17T07:50:23.983Z,33.60
2018-10-17T07:51:30.677Z,31.50
2018-10-17T07:52:24.192Z,31.90
2018-10-17T07:53:23.966Z,32.70
2018-10-17T07:54:24.032Z,32.20
2018-10-17T07:55:24.299Z,32.10
2018-10-17T07:56:24.032Z,30.10
2018-10-17T07:57:23.953Z,30.70
2018-10-17T07:58:23.959Z,30.80
2018-10-17T07:59:23.920Z,31.70
2018-10-17T08:00:24.179Z,33.50
2018-10-17T08:01:23.984Z,30.80
2018-10-17T08:02:23.892Z,29.00
2018-10-17T08:03:23.935Z,27.80
2018-10-17T08:04:23.931Z,28.70
2018-10-17T08:05:23.965Z,27.80
2018-10-17T08:06:23.940Z,28.00
2018-10-17T08:07:23.930Z,26.90
2018-10-17T08:08:23.941Z,27.50
2018-10-17T08:09:24.453Z,27.40
2018-10-17T08:10:24.038Z,30.50
2018-10-17T08:11:24.200Z,43.00
2018-10-17T08:12:23.967Z,28.30
2018-10-17T08:13:24.560Z,26.00
2018-10-17T08:14:24.011Z,25.60
2018-10-17T08:15:24.568Z,26.80
2018-10-17T08:16:24.167Z,36.00
2018-10-17T08:17:24.171Z,26.80
2018-10-17T08:18:26.951Z,27.80
2018-10-17T08:19:24.564Z,27.40
2018-10-17T08:20:24.211Z,41.70
2018-10-17T08:21:24.886Z,27.10
2018-10-17T08:22:24.238Z,30.90
2018-10-17T08:23:24.947Z,26.40
2018-10-17T08:24:23.993Z,26.70
2018-10-17T08:25:24.715Z,25.90
2018-10-17T08:26:24.358Z,25.30
2018-10-17T08:27:24.167Z,26.20
2018-10-17T08:29:25.981Z,24.60
2018-10-17T08:30:25.604Z,26.30
2018-10-17T08:31:25.740Z,24.90
2018-10-17T08:33:25.276Z,24.50
2018-10-17T08:34:24.580Z,20.10
2018-10-17T08:35:25.002Z,18.90
2018-10-17T08:36:25.170Z,18.90
2018-10-17T08:37:25.350Z,18.40
2018-10-17T08:38:29.985Z,19.70
2018-10-17T08:39:24.348Z,19.70
2018-10-17T08:40:36.254Z,19.10
2018-10-17T08:41:27.440Z,19.60
2018-10-17T08:42:46.101Z,20.10
2018-10-17T08:43:24.592Z,20.10
2018-10-17T08:44:24.482Z,18.40
2018-10-17T08:45:24.284Z,19.60
2018-10-17T08:46:24.370Z,18.30
2018-10-17T08:47:24.209Z,19.20
2018-10-17T08:48:24.116Z,18.10
2018-10-17T08:49:24.935Z,18.80
2018-10-17T08:50:27.767Z,18.20
2018-10-17T08:51:24.860Z,18.10
2018-10-17T08:52:24.306Z,18.00
2018-10-17T08:53:24.248Z,17.10
2018-10-17T08:54:24.461Z,18.60
2018-10-17T08:55:24.466Z,17.50
2018-10-17T08:56:24.285Z,18.20
2018-10-17T08:57:24.281Z,17.90
2018-10-17T08:58:24.185Z,18.30
2018-10-17T08:59:24.767Z,17.40
2018-10-17T09:00:24.199Z,17.20
2018-10-17T09:01:24.288Z,17.60
2018-10-17T09:02:24.316Z,15.90
2018-10-17T09:03:24.231Z,17.80
2018-10-17T09:04:25.343Z,18.30
2018-10-17T09:05:25.064Z,17.10
2018-10-17T09:06:24.320Z,18.90
2018-10-17T09:07:24.230Z,17.70
2018-10-17T09:08:24.372Z,16.70
2018-10-17T09:09:24.342Z,17.30
2018-10-17T09:10:24.247Z,17.20
2018-10-17T09:11:25.090Z,17.70
2018-10-17T09:12:24.250Z,17.70
2018-10-17T09:13:24.390Z,18.30
2018-10-17T09:14:24.285Z,17.10
2018-10-17T09:15:24.814Z,17.00
2018-10-17T09:16:24.365Z,16.70
2018-10-17T09:17:24.298Z,16.50
2018-10-17T09:18:24.413Z,16.90
2018-10-17T09:19:24.862Z,16.20
2018-10-17T09:20:24.810Z,15.90
2018-10-17T09:21:33.286Z,15.70
2018-10-17T09:22:24.728Z,14.60
2018-10-17T09:23:25.266Z,15.30
2018-10-17T09:24:24.363Z,15.30
2018-10-17T09:25:24.457Z,15.30
2018-10-17T09:26:24.369Z,15.30
2018-10-17T09:27:24.508Z,15.20
2018-10-17T09:28:24.580Z,15.10
2018-10-17T09:29:24.445Z,15.30
2018-10-17T09:30:24.518Z,15.30
2018-10-17T09:31:24.455Z,16.40
2018-10-17T09:32:24.476Z,15.70
2018-10-17T09:33:24.455Z,15.20
2018-10-17T09:34:24.594Z,15.20
2018-10-17T09:35:24.558Z,14.60
2018-10-17T09:36:24.679Z,14.70
2018-10-17T09:38:43.245Z,14.70
2018-10-17T22:00:58.999Z,96.10
2018-10-17T22:01:58.965Z,101.00
2018-10-17T22:02:59.012Z,104.40
2018-10-17T22:03:58.965Z,100.50
2018-10-17T22:04:59.004Z,101.00
2018-10-17T22:05:59.009Z,97.60
2018-10-17T22:06:59.054Z,103.90
2018-10-17T22:07:59.089Z,100.10
2018-10-17T22:08:59.088Z,100.20
2018-10-17T22:09:59.099Z,100.40
2018-10-17T22:10:59.005Z,100.50
2018-10-17T22:11:59.149Z,100.50
2018-10-17T22:12:59.481Z,103.30
2018-10-17T22:13:59.079Z,103.00
2018-10-17T22:14:59.075Z,100.00
2018-10-17T22:15:59.030Z,102.40
2018-10-17T22:16:59.045Z,102.70
2018-10-17T22:17:59.027Z,102.20
2018-10-17T22:18:59.159Z,105.40
2018-10-17T22:19:59.084Z,104.60
2018-10-17T22:20:59.117Z,105.50
2018-10-17T22:21:59.122Z,103.70
2018-10-17T22:22:59.063Z,104.90
2018-10-17T22:23:59.038Z,106.30
2018-10-17T22:24:59.106Z,107.00
2018-10-17T22:25:59.111Z,114.80
2018-10-17T22:26:59.050Z,178.20
2018-10-17T22:27:59.082Z,135.10
2018-10-17T22:28:59.060Z,120.00
2018-10-17T22:29:59.121Z,108.20
2018-10-17T22:30:59.073Z,120.00
2018-10-17T22:31:59.165Z,116.90
2018-10-17T22:32:59.023Z,108.80
2018-10-17T22:33:59.091Z,107.00
2018-10-17T22:34:59.046Z,109.00
2018-10-17T22:35:59.046Z,110.70
2018-10-17T22:36:59.086Z,108.60
2018-10-17T22:37:59.058Z,112.10
2018-10-17T22:38:59.045Z,109.40
2018-10-17T22:39:59.106Z,109.20
2018-10-17T22:40:59.133Z,105.40
2018-10-17T22:41:59.073Z,104.40
2018-10-17T22:42:59.122Z,106.20
2018-10-17T22:43:59.123Z,111.80
2018-10-17T22:44:59.082Z,111.00
2018-10-17T22:45:59.092Z,110.90
2018-10-17T22:46:59.097Z,103.20
2018-10-17T22:47:59.135Z,110.10
2018-10-17T22:48:59.102Z,105.10
2018-10-17T22:49:59.177Z,106.40
2018-10-17T22:50:59.104Z,107.00
2018-10-17T22:51:59.088Z,108.90
2018-10-17T22:52:59.142Z,106.40
2018-10-17T22:53:59.091Z,107.10
2018-10-17T22:54:59.297Z,106.70
2018-10-17T22:55:59.116Z,109.20
2018-10-17T22:56:59.092Z,110.00
2018-10-17T22:57:59.089Z,105.00
2018-10-17T22:58:59.138Z,104.00
2018-10-17T22:59:59.142Z,106.20
2018-10-17T23:00:59.156Z,109.50
2018-10-17T23:01:59.129Z,104.80
2018-10-17T23:02:59.155Z,107.90
2018-10-17T23:03:59.134Z,107.80
2018-10-17T23:04:59.219Z,105.40
2018-10-17T23:05:59.172Z,103.80
2018-10-17T23:06:59.115Z,103.50
2018-10-17T23:07:59.204Z,104.80
2018-10-17T23:08:59.089Z,109.20
2018-10-17T23:09:59.146Z,111.70
2018-10-17T23:10:59.172Z,108.70
2018-10-17T23:11:59.121Z,110.70
2018-10-17T23:12:59.157Z,108.60
2018-10-17T23:13:59.143Z,105.80
2018-10-17T23:14:59.162Z,104.60
2018-10-17T23:15:59.164Z,105.40
2018-10-17T23:16:59.193Z,103.60
2018-10-17T23:17:59.147Z,103.70
2018-10-17T23:18:59.209Z,105.10
2018-10-17T23:19:59.224Z,113.10
2018-10-17T23:20:59.107Z,110.80
2018-10-17T23:21:59.293Z,109.50
2018-10-17T23:22:59.101Z,112.80
2018-10-17T23:23:59.182Z,109.80
2018-10-17T23:24:59.158Z,112.80
2018-10-17T23:25:59.182Z,106.00
2018-10-17T23:26:59.144Z,108.70
2018-10-17T23:27:59.193Z,104.70
2018-10-17T23:28:59.218Z,109.70
2018-10-17T23:29:59.126Z,111.20
2018-10-17T23:30:59.130Z,107.90
2018-10-17T23:31:59.170Z,107.60
2018-10-17T23:32:59.141Z,108.50
2018-10-17T23:33:59.137Z,115.60
2018-10-17T23:34:59.169Z,114.40
2018-10-17T23:35:59.149Z,111.80
2018-10-17T23:36:59.181Z,112.20
2018-10-17T23:37:59.157Z,114.30
2018-10-17T23:38:59.121Z,110.80
2018-10-17T23:39:59.149Z,111.10
2018-10-17T23:40:59.140Z,118.20
2018-10-17T23:41:59.207Z,112.80
2018-10-17T23:42:59.145Z,114.00
2018-10-17T23:43:59.233Z,111.40
2018-10-17T23:44:59.147Z,112.20
2018-10-17T23:45:59.167Z,110.50
2018-10-17T23:46:59.148Z,117.10
2018-10-17T23:47:59.212Z,119.40
2018-10-17T23:48:59.187Z,114.40
2018-10-17T23:49:59.282Z,110.80
2018-10-17T23:50:59.200Z,110.20
2018-10-17T23:51:59.201Z,115.70
2018-10-17T23:52:59.197Z,112.80
2018-10-17T23:53:59.243Z,109.50
2018-10-17T23:54:59.267Z,114.30
2018-10-17T23:55:59.228Z,109.40
2018-10-17T23:56:59.626Z,113.70
2018-10-17T23:57:59.222Z,117.40
2018-10-17T23:58:59.207Z,112.80
2018-10-17T23:59:59.253Z,106.90
